| time (UTC) | temp F | wind direction | speed MPH | gust MPH | rain 1hr in | rain 24hr in | rain mn in | humidity % | barometer mb |
| 20260905182049 | 66 | 280 | 12.0 | 0.0 | 0.00 | 0.00 | 0.00 | 52 | |
| 20260905181352 | 66 | 280 | 13.0 | 0.0 | 0.00 | 0.00 | 0.00 | 52 | 1020.0 |
| 20260905181152 | 66 | 280 | 13.0 | 0.0 | 0.00 | 0.00 | 0.00 | 52 | 1020.0 |
| 20260905180752 | 66 | 280 | 13.0 | 0.0 | 0.00 | 0.00 | 0.00 | 52 | 1020.0 |
| 20260905180355 | 66 | 280 | 13.0 | 0.0 | 0.00 | 0.00 | 0.00 | 52 | 1020.0 |
| 20260905180154 | 66 | 280 | 13.0 | 0.0 | 0.00 | 0.00 | 0.00 | 52 | 1020.0 |
| 20260905175452 | 68 | 270 | 17.0 | 0.0 | 0.00 | 0.00 | 0.00 | 45 | 1020.0 |
| 20260905175252 | 68 | 270 | 17.0 | 0.0 | 0.00 | 0.00 | 0.00 | 45 | 1020.0 |
| 20260905174752 | 68 | 270 | 17.0 | 0.0 | 0.00 | 0.00 | 0.00 | 45 | 1020.0 |
| 20260905174152 | 68 | 270 | 17.0 | 0.0 | 0.00 | 0.00 | 0.00 | 45 | 1020.0 |
| 20260905173506 | 68 | 270 | 17.0 | 0.0 | 0.00 | 0.00 | 0.00 | 45 | 1020.0 |
| 20260905172752 | 70 | 270 | 17.0 | 29.0 | 0.00 | 0.00 | 0.00 | 43 | 1020.0 |
| 20260905172206 | 70 | 270 | 17.0 | 29.0 | 0.00 | 0.00 | 0.00 | 43 | 1020.0 |
| 20260905172145 | 68 | 270 | 20.0 | 0.0 | 0.00 | 0.00 | 0.00 | 45 | |
| 20260905171614 | 70 | 270 | 17.0 | 29.0 | 0.00 | 0.00 | 0.00 | 43 | 1020.0 |
| 20260905170607 | 70 | 270 | 17.0 | 29.0 | 0.00 | 0.00 | 0.00 | 43 | 1020.0 |
| 20260905170122 | 70 | 270 | 17.0 | 29.0 | 0.00 | 0.00 | 0.00 | 43 | 1020.0 |
| 20260905163853 | 70 | 270 | 21.0 | 0.0 | 0.00 | 0.00 | 0.00 | 40 | 1020.0 |
| 20260905163109 | 70 | 270 | 21.0 | 0.0 | 0.00 | 0.00 | 0.00 | 40 | 1020.0 |
| 20260905162951 | 72 | 280 | 26.0 | 38.0 | 0.00 | 0.00 | 0.00 | 37 | 1019.0 |
| 20260905162452 | 70 | 280 | 22.0 | 0.0 | 0.00 | 0.00 | 0.00 | 40 | |
| 20260905162306 | 72 | 280 | 26.0 | 38.0 | 0.00 | 0.00 | 0.00 | 37 | 1019.0 |
| 20260905161653 | 72 | 280 | 26.0 | 38.0 | 0.00 | 0.00 | 0.00 | 37 | 1019.0 |
| 20260905161153 | 72 | 280 | 26.0 | 38.0 | 0.00 | 0.00 | 0.00 | 37 | 1019.0 |
| 20260905160852 | 72 | 280 | 26.0 | 38.0 | 0.00 | 0.00 | 0.00 | 37 | 1019.0 |
| 20260905160356 | 72 | 280 | 26.0 | 38.0 | 0.00 | 0.00 | 0.00 | 37 | 1019.0 |
| 20260905155203 | 72 | 270 | 22.0 | 33.0 | 0.00 | 0.00 | 0.00 | 37 | 1019.0 |
| 20260905154752 | 72 | 270 | 21.0 | 0.0 | 0.00 | 0.00 | 0.00 | 37 | 1019.0 |
| 20260905154613 | 72 | 270 | 21.0 | 0.0 | 0.00 | 0.00 | 0.00 | 37 | 1019.0 |
| 20260905154253 | 72 | 270 | 21.0 | 0.0 | 0.00 | 0.00 | 0.00 | 37 | 1019.0 |
| 20260905151946 | 70 | 280 | 24.0 | 0.0 | 0.00 | 0.00 | 0.00 | 40 | |
| 20260905151903 | 72 | 280 | 25.0 | 0.0 | 0.00 | 0.00 | 0.00 | 37 | 1019.0 |
| 20260905151153 | 72 | 280 | 25.0 | 0.0 | 0.00 | 0.00 | 0.00 | 37 | 1019.0 |
| 20260905150651 | 72 | 280 | 25.0 | 0.0 | 0.00 | 0.00 | 0.00 | 37 | 1019.0 |
| 20260905145952 | 72 | 290 | 25.0 | 0.0 | 0.00 | 0.00 | 0.00 | 37 | 1019.0 |
| 20260905145652 | 72 | 290 | 25.0 | 0.0 | 0.00 | 0.00 | 0.00 | 37 | 1019.0 |
| 20260905145151 | 72 | 290 | 25.0 | 0.0 | 0.00 | 0.00 | 0.00 | 37 | 1019.0 |
| 20260905144252 | 72 | 290 | 25.0 | 0.0 | 0.00 | 0.00 | 0.00 | 37 | 1019.0 |
| 20260905143753 | 72 | 290 | 25.0 | 0.0 | 0.00 | 0.00 | 0.00 | 37 | 1019.0 |
| 20260905142159 | 72 | 290 | 26.0 | 37.0 | 0.00 | 0.00 | 0.00 | 37 | 1019.0 |
| 20260905141925 | 72 | 280 | 24.0 | 36.0 | 0.00 | 0.00 | 0.00 | 37 | |
| 20260905140505 | 72 | 290 | 26.0 | 37.0 | 0.00 | 0.00 | 0.00 | 37 | 1019.0 |
| 20260905140157 | 72 | 290 | 26.0 | 37.0 | 0.00 | 0.00 | 0.00 | 37 | 1019.0 |
| 20260905135114 | 72 | 290 | 25.0 | 0.0 | 0.00 | 0.00 | 0.00 | 40 | 1019.0 |
| 20260905134652 | 72 | 290 | 25.0 | 0.0 | 0.00 | 0.00 | 0.00 | 40 | 1019.0 |
| 20260905134252 | 72 | 290 | 25.0 | 0.0 | 0.00 | 0.00 | 0.00 | 40 | 1019.0 |
| 20260905133853 | 72 | 290 | 25.0 | 0.0 | 0.00 | 0.00 | 0.00 | 40 | 1019.0 |
| 20260905133505 | 72 | 290 | 25.0 | 0.0 | 0.00 | 0.00 | 0.00 | 40 | 1019.0 |
| 20260905133152 | 72 | 290 | 25.0 | 0.0 | 0.00 | 0.00 | 0.00 | 40 | 1019.0 |
| 20260905132309 | 72 | 280 | 22.0 | 0.0 | 0.00 | 0.00 | 0.00 | 40 | |
| 20260905132305 | 72 | 270 | 22.0 | 0.0 | 0.00 | 0.00 | 0.00 | 40 | 1020.0 |
| 20260905131651 | 72 | 270 | 22.0 | 0.0 | 0.00 | 0.00 | 0.00 | 40 | 1020.0 |
| 20260905131152 | 72 | 270 | 22.0 | 0.0 | 0.00 | 0.00 | 0.00 | 40 | 1020.0 |
| 20260905130752 | 72 | 270 | 22.0 | 0.0 | 0.00 | 0.00 | 0.00 | 40 | 1020.0 |
| 20260905130258 | 72 | 270 | 22.0 | 0.0 | 0.00 | 0.00 | 0.00 | 40 | 1020.0 |
| 20260905125652 | 72 | 280 | 22.0 | 33.0 | 0.00 | 0.00 | 0.00 | 37 | 1020.0 |
| 20260905125453 | 72 | 280 | 22.0 | 33.0 | 0.00 | 0.00 | 0.00 | 37 | 1020.0 |
| 20260905125253 | 72 | 280 | 22.0 | 33.0 | 0.00 | 0.00 | 0.00 | 37 | 1020.0 |
| 20260905124952 | 72 | 280 | 22.0 | 33.0 | 0.00 | 0.00 | 0.00 | 37 | 1020.0 |
| 20260905124613 | 70 | 280 | 23.0 | 0.0 | 0.00 | 0.00 | 0.00 | 43 | 1020.0 |
| 20260905124113 | 70 | 280 | 23.0 | 0.0 | 0.00 | 0.00 | 0.00 | 43 | 1020.0 |
| 20260905123653 | 70 | 280 | 23.0 | 0.0 | 0.00 | 0.00 | 0.00 | 43 | 1020.0 |
| 20260905123352 | 70 | 280 | 23.0 | 0.0 | 0.00 | 0.00 | 0.00 | 43 | 1020.0 |
| 20260905123152 | 70 | 280 | 23.0 | 0.0 | 0.00 | 0.00 | 0.00 | 43 | 1020.0 |
| 20260905122518 | 70 | 280 | 22.0 | 31.0 | 0.00 | 0.00 | 0.00 | 43 | 1020.0 |
| 20260905122206 | 70 | 290 | 18.0 | 0.0 | 0.00 | 0.00 | 0.00 | 46 | 1020.0 |
| 20260905122159 | 70 | 290 | 22.0 | 0.0 | 0.00 | 0.00 | 0.00 | 43 | |
| 20260905121803 | 70 | 290 | 18.0 | 0.0 | 0.00 | 0.00 | 0.00 | 46 | 1020.0 |
| 20260905121152 | 70 | 290 | 18.0 | 0.0 | 0.00 | 0.00 | 0.00 | 46 | 1020.0 |
| 20260905120608 | 70 | 290 | 18.0 | 0.0 | 0.00 | 0.00 | 0.00 | 46 | 1020.0 |
| 20260905115900 | 70 | 270 | 18.0 | 0.0 | 0.00 | 0.00 | 0.00 | 46 | 1020.0 |
| 20260905114113 | 70 | 270 | 18.0 | 0.0 | 0.00 | 0.00 | 0.00 | 46 | 1020.0 |
| 20260905113111 | 70 | 270 | 18.0 | 0.0 | 0.00 | 0.00 | 0.00 | 46 | 1020.0 |
| 20260905112752 | 68 | 260 | 17.0 | 0.0 | 0.00 | 0.00 | 0.00 | 49 | 1020.0 |
| 20260905112306 | 68 | 260 | 17.0 | 0.0 | 0.00 | 0.00 | 0.00 | 49 | 1020.0 |
| 20260905112055 | 70 | 260 | 18.0 | 0.0 | 0.00 | 0.00 | 0.00 | 46 | |
| 20260905111906 | 68 | 260 | 17.0 | 0.0 | 0.00 | 0.00 | 0.00 | 49 | 1020.0 |
| 20260905110120 | 68 | 260 | 17.0 | 0.0 | 0.00 | 0.00 | 0.00 | 49 | 1020.0 |
| 20260905105252 | 68 | 260 | 15.0 | 0.0 | 0.00 | 0.00 | 0.00 | 56 | 1020.0 |
| 20260905105114 | 68 | 260 | 15.0 | 0.0 | 0.00 | 0.00 | 0.00 | 56 | 1020.0 |
| 20260905104652 | 68 | 260 | 15.0 | 0.0 | 0.00 | 0.00 | 0.00 | 56 | 1020.0 |
| 20260905104352 | 68 | 260 | 15.0 | 0.0 | 0.00 | 0.00 | 0.00 | 56 | 1020.0 |
| 20260905103110 | 68 | 260 | 15.0 | 0.0 | 0.00 | 0.00 | 0.00 | 56 | 1020.0 |
| 20260905102852 | 66 | 270 | 15.0 | 0.0 | 0.00 | 0.00 | 0.00 | 59 | 1020.0 |
| 20260905102524 | 66 | 270 | 16.0 | 0.0 | 0.00 | 0.00 | 0.00 | 59 | |
| 20260905102404 | 66 | 270 | 15.0 | 0.0 | 0.00 | 0.00 | 0.00 | 59 | 1020.0 |
| 20260905101952 | 66 | 270 | 15.0 | 0.0 | 0.00 | 0.00 | 0.00 | 59 | 1020.0 |
| 20260905101452 | 66 | 270 | 15.0 | 0.0 | 0.00 | 0.00 | 0.00 | 59 | 1020.0 |
| 20260905100852 | 66 | 270 | 15.0 | 0.0 | 0.00 | 0.00 | 0.00 | 59 | 1020.0 |
| 20260905100400 | 66 | 270 | 15.0 | 0.0 | 0.00 | 0.00 | 0.00 | 59 | 1020.0 |
| 20260905095252 | 64 | 260 | 13.0 | 0.0 | 0.00 | 0.00 | 0.00 | 67 | 1020.0 |
| 20260905094852 | 64 | 260 | 13.0 | 0.0 | 0.00 | 0.00 | 0.00 | 67 | 1020.0 |
| 20260905094252 | 64 | 260 | 13.0 | 0.0 | 0.00 | 0.00 | 0.00 | 67 | 1020.0 |
| 20260905093753 | 64 | 260 | 13.0 | 0.0 | 0.00 | 0.00 | 0.00 | 67 | 1020.0 |
| 20260905092452 | 63 | 230 | 12.0 | 0.0 | 0.00 | 0.00 | 0.00 | 72 | 1020.0 |
| 20260905092109 | 63 | 240 | 12.0 | 0.0 | 0.00 | 0.00 | 0.00 | 77 | |
| 20260905092012 | 63 | 230 | 12.0 | 0.0 | 0.00 | 0.00 | 0.00 | 72 | 1020.0 |
| 20260905090853 | 63 | 230 | 12.0 | 0.0 | 0.00 | 0.00 | 0.00 | 72 | 1020.0 |
| 20260905090113 | 63 | 230 | 12.0 | 0.0 | 0.00 | 0.00 | 0.00 | 72 | 1020.0 |
| 20260905084252 | 59 | 260 | 8.0 | 0.0 | 0.00 | 0.00 | 0.00 | 82 | 1020.0 |
| 20260905083117 | 59 | 260 | 8.0 | 0.0 | 0.00 | 0.00 | 0.00 | 82 | 1020.0 |
| 20260905082110 | 59 | 270 | 9.0 | 0.0 | 0.00 | 0.00 | 0.00 | 82 | |
| 20260905080120 | 59 | 260 | 8.0 | 0.0 | 0.00 | 0.00 | 0.00 | 82 | 1020.0 |
| 20260905073111 | 57 | 300 | 10.0 | 0.0 | 0.00 | 0.00 | 0.00 | 87 | 1019.0 |
| 20260905072410 | 57 | 270 | 9.0 | 0.0 | 0.00 | 0.00 | 0.00 | 87 | |
| 20260905070120 | 57 | 230 | 9.0 | 0.0 | 0.00 | 0.00 | 0.00 | 87 | 1018.0 |
| 20260905063117 | 57 | 240 | 9.0 | 0.0 | 0.00 | 0.00 | 0.00 | 87 | 1019.0 |
| 20260905062110 | 57 | 290 | 14.0 | 0.0 | 0.00 | 0.00 | 0.00 | 82 | |
| 20260905060114 | 57 | 290 | 14.0 | 0.0 | 0.00 | 0.00 | 0.00 | 82 | 1019.0 |
| 20260905053117 | 59 | 280 | 14.0 | 0.0 | 0.00 | 0.00 | 0.00 | 77 | 1019.0 |
| 20260905052109 | 59 | 280 | 12.0 | 0.0 | 0.00 | 0.00 | 0.00 | 82 | |
| 20260905050113 | 59 | 280 | 12.0 | 0.0 | 0.00 | 0.00 | 0.00 | 82 | 1018.0 |
| 20260905043117 | 61 | 300 | 12.0 | 0.0 | 0.00 | 0.00 | 0.00 | 72 | 1018.0 |
| 20260905042525 | 61 | 300 | 14.0 | 0.0 | 0.00 | 0.00 | 0.00 | 67 | |
| 20260905040119 | 61 | 310 | 12.0 | 0.0 | 0.00 | 0.00 | 0.00 | 77 | 1017.0 |
| 20260905033109 | 63 | 320 | 17.0 | 0.0 | 0.00 | 0.00 | 0.00 | 67 | 1016.0 |
| 20260905032110 | 63 | 310 | 16.0 | 0.0 | 0.00 | 0.00 | 0.00 | 67 | |
| 20260905030606 | 63 | 310 | 16.0 | 0.0 | 0.00 | 0.00 | 0.00 | 67 | 1017.0 |
| 20260905030122 | 64 | 320 | 14.0 | 0.0 | 0.00 | 0.00 | 0.00 | 63 | 1017.0 |
| 20260905023117 | 64 | 320 | 14.0 | 0.0 | 0.00 | 0.00 | 0.00 | 63 | 1016.0 |
| 20260905022109 | 64 | 320 | 16.0 | 0.0 | 0.00 | 0.00 | 0.00 | 63 | |
| 20260905020122 | 64 | 320 | 15.0 | 0.0 | 0.00 | 0.00 | 0.00 | 63 | 1016.0 |
| 20260905013111 | 68 | 330 | 20.0 | 0.0 | 0.00 | 0.00 | 0.00 | 64 | 1015.0 |
| 20260905012410 | 68 | 330 | 20.0 | 0.0 | 0.00 | 0.00 | 0.00 | 60 | |
| 20260905010114 | 70 | 310 | 18.0 | 30.0 | 0.00 | 0.00 | 0.00 | 60 | 1015.0 |
| 20260905003116 | 73 | 240 | 9.0 | 0.0 | 0.00 | 0.00 | 0.00 | 49 | 1013.0 |
| 20260905002124 | 72 | 240 | 9.0 | 0.0 | 0.00 | 0.00 | 0.00 | 53 | |
| 20260905000114 | 73 | 240 | 8.0 | 0.0 | 0.00 | 0.00 | 0.00 | 49 | 1013.0 |
| 20260904233117 | 72 | 240 | 6.0 | 0.0 | 0.00 | 0.00 | 0.00 | 53 | 1013.0 |
| 20260904232155 | 72 | 240 | 7.0 | 0.0 | 0.00 | 0.00 | 0.00 | 53 | |
| 20260904230112 | 72 | 240 | 6.0 | 0.0 | 0.00 | 0.00 | 0.00 | 53 | 1013.0 |
| 20260904223116 | 73 | 230 | 6.0 | 0.0 | 0.00 | 0.00 | 0.00 | 49 | 1013.0 |
| 20260904222531 | 72 | 230 | 7.0 | 0.0 | 0.00 | 0.00 | 0.00 | 53 | |
| 20260904220114 | 72 | 220 | 8.0 | 0.0 | 0.00 | 0.00 | 0.00 | 53 | 1013.0 |
| 20260904213116 | 72 | 220 | 8.0 | 0.0 | 0.00 | 0.00 | 0.00 | 53 | 1013.0 |
| 20260904212109 | 72 | 220 | 7.0 | 0.0 | 0.00 | 0.00 | 0.00 | 53 | |
| 20260904210120 | 72 | 220 | 7.0 | 0.0 | 0.00 | 0.00 | 0.00 | 53 | 1013.0 |
| 20260904203118 | 73 | 220 | 6.0 | 0.0 | 0.00 | 0.00 | 0.00 | 46 | 1013.0 |
| 20260904202108 | 73 | 230 | 5.0 | 0.0 | 0.00 | 0.00 | 0.00 | 49 | |
| 20260904200121 | 73 | 230 | 6.0 | 0.0 | 0.00 | 0.00 | 0.00 | 46 | 1013.0 |
| 20260904193105 | 75 | 220 | 6.0 | 0.0 | 0.00 | 0.00 | 0.00 | 44 | 1014.0 |
| 20260904192356 | 75 | 230 | 7.0 | 0.0 | 0.00 | 0.00 | 0.00 | 44 |